createdAt,value
2023-05-25T04:08:10.784Z,100.00
2023-05-25T04:10:38.596Z,100.00
2023-05-25T04:13:06.036Z,100.00
2023-05-25T04:15:34.689Z,100.00
2023-05-25T04:18:07.211Z,100.00
2023-05-25T04:20:35.830Z,100.00
2023-05-25T04:23:03.562Z,100.00
2023-05-25T04:25:32.221Z,100.00
2023-05-25T04:28:00.603Z,100.00
2023-05-25T04:31:06.937Z,100.00
2023-05-25T04:33:40.752Z,100.00
2023-05-25T04:36:18.536Z,100.00
2023-05-25T04:38:47.972Z,100.00
2023-05-25T04:41:15.732Z,100.00
2023-05-25T04:44:04.030Z,100.00
2023-05-25T04:46:37.131Z,100.00
2023-05-25T04:49:05.715Z,100.00
2023-05-25T04:51:33.460Z,100.00
2023-05-25T04:54:00.958Z,100.00
2023-05-25T04:56:29.133Z,100.00
2023-05-25T04:58:58.401Z,100.00
2023-05-25T05:01:26.502Z,100.00
2023-05-25T05:03:57.165Z,100.00
2023-05-25T05:06:25.804Z,100.00
2023-05-25T05:08:53.763Z,100.00
2023-05-25T05:11:21.655Z,100.00
2023-05-25T05:13:49.226Z,100.00
2023-05-25T05:16:17.343Z,100.00
2023-05-25T05:18:45.574Z,100.00
2023-05-25T05:21:13.209Z,100.00
2023-05-25T05:23:43.657Z,100.00
2023-05-25T05:26:11.724Z,100.00
2023-05-25T05:28:39.410Z,100.00
2023-05-25T05:31:07.432Z,100.00
2023-05-25T05:33:36.357Z,100.00
2023-05-25T05:36:04.790Z,100.00
2023-05-25T05:38:32.578Z,100.00
2023-05-25T05:41:02.792Z,100.00
2023-05-25T05:43:30.559Z,100.00
2023-05-25T05:45:58.522Z,100.00
2023-05-25T05:48:26.318Z,100.00
2023-05-25T05:50:53.704Z,100.00
2023-05-25T05:53:21.719Z,100.00
2023-05-25T05:55:55.824Z,100.00
2023-05-25T05:58:26.586Z,100.00
2023-05-25T06:00:55.210Z,100.00
2023-05-25T06:03:24.112Z,100.00
2023-05-25T06:05:51.769Z,100.00
2023-05-25T06:08:19.827Z,100.00
2023-05-25T06:10:47.594Z,100.00
2023-05-25T06:13:15.541Z,100.00
2023-05-25T06:15:43.186Z,100.00
2023-05-25T06:18:16.162Z,100.00
2023-05-25T06:20:44.045Z,100.00
2023-05-25T06:23:14.035Z,100.00
2023-05-25T06:25:42.125Z,100.00
2023-05-25T06:28:10.228Z,100.00
2023-05-25T06:30:37.545Z,100.00
2023-05-25T06:33:08.581Z,100.00
2023-05-25T06:35:36.599Z,100.00
2023-05-25T06:38:04.471Z,100.00
2023-05-25T06:40:32.495Z,100.00
2023-05-25T06:42:59.941Z,100.00
2023-05-25T06:45:42.690Z,100.00
2023-05-25T06:48:10.135Z,100.00
2023-05-25T06:50:37.992Z,100.00
2023-05-25T06:53:05.371Z,100.00
2023-05-25T06:55:32.627Z,100.00
2023-05-25T06:58:00.430Z,100.00
2023-05-25T07:00:28.306Z,100.00
2023-05-25T07:02:56.520Z,100.00
2023-05-25T07:05:24.824Z,100.00
2023-05-25T07:07:52.485Z,100.00
2023-05-25T07:10:19.895Z,100.00
2023-05-25T07:12:47.394Z,100.00
2023-05-25T07:15:16.074Z,100.00
2023-05-25T07:17:44.125Z,100.00
2023-05-25T07:20:13.514Z,100.00
2023-05-25T07:22:41.440Z,100.00
2023-05-25T07:25:09.307Z,100.00
2023-05-25T07:27:37.060Z,100.00
2023-05-25T07:30:05.293Z,100.00
2023-05-25T07:32:33.374Z,100.00
2023-05-25T07:35:01.315Z,100.00
2023-05-25T07:37:28.634Z,100.00
2023-05-25T07:39:56.098Z,100.00
2023-05-25T07:42:23.570Z,100.00
2023-05-25T07:44:50.881Z,100.00
2023-05-25T07:47:18.618Z,100.00
2023-05-25T07:49:46.402Z,100.00
2023-05-25T07:52:14.241Z,100.00
2023-05-25T07:54:41.807Z,100.00
2023-05-25T07:57:09.218Z,100.00
2023-05-25T07:59:37.094Z,100.00
2023-05-25T08:02:05.123Z,100.00
2023-05-25T08:04:33.928Z,100.00
2023-05-25T08:07:01.599Z,100.00
2023-05-25T08:09:29.095Z,100.00
2023-05-25T08:12:07.573Z,100.00
2023-05-25T08:14:43.750Z,100.00
2023-05-25T08:17:11.171Z,100.00
2023-05-25T08:19:38.658Z,100.00
2023-05-25T08:22:06.191Z,100.00
2023-05-25T08:24:33.486Z,100.00
2023-05-25T08:27:02.015Z,100.00
2023-05-25T08:29:29.643Z,100.00
2023-05-25T08:31:57.372Z,100.00
2023-05-25T08:34:25.223Z,100.00
2023-05-25T08:36:53.213Z,100.00
2023-05-25T08:39:20.627Z,100.00
2023-05-25T08:41:50.653Z,100.00
2023-05-25T08:44:18.423Z,100.00
2023-05-25T08:46:49.975Z,100.00
2023-05-25T08:49:18.051Z,100.00
2023-05-25T08:51:49.802Z,100.00
2023-05-25T08:54:20.658Z,100.00
2023-05-25T08:56:55.738Z,100.00
2023-05-25T08:59:29.153Z,100.00
2023-05-25T09:02:08.680Z,100.00
2023-05-25T09:04:36.837Z,100.00
2023-05-25T09:07:10.978Z,100.00
2023-05-25T09:09:39.933Z,100.00
2023-05-25T09:12:08.443Z,100.00
2023-05-25T09:14:37.896Z,100.00
2023-05-25T09:17:06.210Z,100.00
2023-05-25T09:19:36.908Z,100.00
2023-05-25T09:22:15.028Z,100.00
2023-05-25T09:24:45.257Z,100.00
2023-05-25T09:27:23.890Z,100.00
2023-05-25T09:29:51.695Z,100.00
2023-05-25T09:32:20.229Z,100.00
2023-05-25T09:34:47.867Z,100.00
2023-05-25T09:37:19.052Z,100.00
2023-05-25T09:39:50.294Z,100.00
2023-05-25T09:42:18.056Z,100.00
2023-05-25T09:44:45.819Z,100.00
2023-05-25T09:47:13.972Z,100.00
2023-05-25T09:49:42.734Z,100.00
2023-05-25T09:52:12.759Z,100.00
2023-05-25T09:54:40.130Z,100.00
2023-05-25T09:57:07.883Z,100.00
2023-05-25T09:59:36.527Z,100.00
2023-05-25T10:02:03.955Z,100.00
2023-05-25T10:04:31.980Z,100.00
2023-05-25T10:07:01.403Z,100.00
2023-05-25T10:09:30.331Z,100.00
2023-05-25T10:11:59.467Z,100.00
2023-05-25T10:14:29.765Z,100.00
2023-05-25T10:16:59.874Z,100.00
2023-05-25T10:19:33.706Z,100.00
2023-05-25T10:22:10.917Z,100.00
2023-05-25T10:24:42.823Z,100.00
2023-05-25T10:27:26.247Z,100.00
2023-05-25T10:30:01.871Z,100.00
2023-05-25T10:32:31.651Z,100.00
2023-05-25T10:35:01.958Z,100.00
2023-05-25T10:37:31.333Z,100.00
2023-05-25T10:40:01.458Z,100.00
2023-05-25T10:42:30.260Z,100.00
2023-05-25T10:44:58.660Z,100.00
2023-05-25T10:47:26.582Z,100.00
2023-05-25T10:49:59.129Z,100.00
2023-05-25T10:52:31.574Z,100.00
2023-05-25T10:55:07.176Z,100.00
2023-05-25T10:57:34.535Z,100.00
2023-05-25T11:00:10.275Z,100.00
2023-05-25T11:02:55.715Z,100.00
2023-05-25T11:05:26.746Z,100.00
2023-05-25T11:07:55.290Z,100.00
2023-05-25T11:10:44.941Z,100.00
2023-05-25T11:13:31.145Z,100.00
2023-05-25T11:16:43.205Z,100.00
2023-05-25T11:19:15.189Z,100.00
2023-05-25T11:21:44.295Z,100.00
2023-05-25T11:24:14.478Z,100.00
2023-05-25T11:26:59.836Z,100.00
2023-05-25T11:29:32.334Z,100.00
2023-05-25T11:32:00.816Z,100.00
2023-05-25T11:34:30.582Z,100.00
2023-05-25T11:37:03.819Z,100.00
2023-05-25T11:39:32.162Z,100.00
2023-05-25T11:42:06.692Z,100.00
2023-05-25T11:44:36.413Z,100.00
2023-05-25T11:47:08.915Z,100.00
2023-05-25T11:49:47.209Z,100.00
2023-05-25T11:52:15.656Z,100.00
2023-05-25T11:54:44.404Z,100.00
2023-05-25T11:57:16.290Z,100.00
2023-05-25T11:59:58.080Z,100.00
2023-05-25T12:02:25.801Z,100.00
2023-05-25T12:04:58.857Z,100.00
2023-05-25T12:07:28.573Z,100.00
2023-05-25T12:10:10.169Z,100.00
2023-05-25T12:12:48.404Z,100.00
2023-05-25T12:15:24.396Z,100.00
2023-05-25T12:17:53.623Z,99.58
2023-05-25T12:20:22.202Z,99.44
2023-05-25T12:22:49.885Z,92.06
2023-05-25T12:25:22.621Z,93.11
2023-05-25T12:28:10.647Z,93.78
2023-05-25T12:30:38.434Z,92.76
2023-05-25T12:33:06.729Z,94.78
2023-05-25T12:35:50.280Z,93.72
2023-05-25T12:38:20.095Z,94.85
2023-05-25T12:40:48.493Z,96.23
2023-05-25T12:43:17.624Z,91.07
2023-05-25T12:45:45.287Z,94.09
2023-05-25T12:48:12.760Z,88.74
2023-05-25T12:50:57.226Z,87.23
2023-05-25T12:53:25.305Z,86.08
2023-05-25T12:56:04.113Z,86.62
2023-05-25T12:58:31.584Z,82.23
2023-05-25T13:00:59.747Z,84.05
2023-05-25T13:03:27.808Z,81.05
2023-05-25T13:06:02.301Z,88.15
2023-05-25T13:08:30.194Z,84.23
2023-05-25T13:10:58.409Z,90.55
2023-05-25T13:13:26.907Z,84.98
2023-05-25T13:15:55.189Z,83.47
2023-05-25T13:18:22.854Z,83.80
2023-05-25T13:20:52.620Z,79.81
2023-05-25T13:23:22.152Z,79.98
2023-05-25T13:25:49.994Z,74.48
2023-05-25T13:28:18.126Z,77.79
2023-05-25T13:30:46.077Z,74.73
2023-05-25T13:33:13.598Z,75.10
2023-05-25T13:35:57.850Z,73.17
2023-05-25T13:38:25.856Z,75.98
2023-05-25T13:40:53.685Z,73.59
2023-05-25T13:43:21.931Z,73.79
2023-05-25T13:45:49.750Z,73.10
2023-05-25T13:48:17.243Z,72.05
2023-05-25T13:50:45.687Z,71.61
2023-05-25T13:53:14.472Z,65.18
2023-05-25T13:55:42.177Z,68.13
2023-05-25T13:58:10.156Z,67.64
2023-05-25T14:00:38.015Z,67.52
2023-05-25T14:03:06.851Z,70.62
2023-05-25T14:05:34.853Z,65.13
2023-05-25T14:08:04.598Z,63.35
2023-05-25T14:10:32.447Z,67.04
2023-05-25T14:13:00.656Z,64.57
2023-05-25T14:15:28.013Z,64.81
2023-05-25T14:17:57.376Z,63.63
2023-05-25T14:20:26.388Z,63.13
2023-05-25T14:22:54.107Z,65.01
2023-05-25T14:25:21.520Z,66.25
2023-05-25T14:27:48.885Z,64.21
2023-05-25T14:30:16.649Z,62.07
2023-05-25T14:32:44.556Z,63.37
2023-05-25T14:35:12.014Z,62.14
2023-05-25T14:37:39.393Z,62.57
2023-05-25T14:40:07.780Z,59.78
2023-05-25T14:42:35.874Z,59.43
2023-05-25T14:45:03.537Z,59.36
2023-05-25T14:47:32.099Z,58.50
2023-05-25T14:50:00.622Z,61.44
2023-05-25T14:52:28.319Z,60.12
2023-05-25T14:54:55.701Z,64.54
2023-05-25T14:57:23.513Z,61.50
2023-05-25T14:59:50.856Z,62.73
2023-05-25T15:02:18.366Z,62.50
2023-05-25T15:04:47.696Z,63.43
2023-05-25T15:07:15.333Z,66.22
2023-05-25T15:09:43.288Z,65.16
2023-05-25T15:12:11.346Z,64.64
2023-05-25T15:14:40.812Z,64.48
2023-05-25T15:17:09.278Z,61.21
2023-05-25T15:19:37.796Z,59.54
2023-05-25T15:22:05.594Z,58.12
2023-05-25T15:24:33.302Z,54.49
2023-05-25T15:27:01.595Z,54.95
2023-05-25T15:29:29.416Z,54.87
2023-05-25T15:31:56.963Z,58.80
2023-05-25T15:34:24.760Z,61.53
2023-05-25T15:36:52.594Z,62.41
2023-05-25T15:39:20.049Z,65.08
2023-05-25T15:41:47.765Z,62.24
2023-05-25T15:44:15.931Z,63.65
2023-05-25T15:46:43.472Z,64.44
2023-05-25T15:49:11.634Z,61.07
2023-05-25T15:51:44.281Z,59.76
2023-05-25T15:54:14.673Z,60.19
2023-05-25T15:56:42.736Z,61.58
2023-05-25T15:59:12.121Z,61.92
2023-05-25T16:01:40.127Z,62.51
2023-05-25T16:04:08.219Z,65.17
2023-05-25T16:06:36.814Z,65.83
2023-05-25T16:09:05.390Z,67.45
2023-05-25T16:11:34.128Z,68.44
2023-05-25T16:14:02.455Z,68.99
2023-05-25T16:16:29.919Z,71.61
2023-05-25T16:18:57.339Z,71.19
2023-05-25T16:21:24.934Z,75.31
2023-05-25T16:23:52.543Z,76.37
2023-05-25T16:26:19.890Z,75.59
2023-05-25T16:28:47.809Z,78.76
2023-05-25T16:31:16.601Z,79.52
2023-05-25T16:33:45.438Z,81.95
2023-05-25T16:36:14.059Z,88.71
2023-05-25T16:38:42.064Z,85.15
2023-05-25T16:41:09.781Z,81.12
2023-05-25T16:43:38.434Z,81.15
2023-05-25T16:46:06.490Z,76.82
2023-05-25T16:48:34.336Z,76.83
2023-05-25T16:51:02.249Z,78.46
2023-05-25T16:53:30.040Z,76.96
2023-05-25T16:55:57.577Z,75.42
2023-05-25T16:58:25.698Z,70.93
2023-05-25T17:00:53.517Z,65.79
2023-05-25T17:03:21.342Z,65.07
2023-05-25T17:05:49.215Z,59.20
2023-05-25T17:08:16.554Z,58.51
2023-05-25T17:10:47.769Z,53.46
2023-05-25T17:13:15.166Z,49.17
2023-05-25T17:15:43.512Z,44.20
2023-05-25T17:18:12.117Z,43.01
2023-05-25T17:20:40.063Z,41.68
2023-05-25T17:23:07.706Z,40.23
2023-05-25T17:25:35.514Z,41.07
2023-05-25T17:28:03.958Z,42.55
2023-05-25T17:30:32.722Z,40.80
2023-05-25T17:33:01.672Z,48.09
2023-05-25T17:35:29.434Z,51.08
2023-05-25T17:37:57.781Z,53.67
2023-05-25T17:40:25.540Z,60.62
2023-05-25T17:42:53.429Z,63.10
2023-05-25T17:45:21.834Z,66.45
2023-05-25T17:47:49.595Z,66.61
2023-05-25T17:50:17.481Z,70.09
2023-05-25T17:52:45.299Z,69.91
2023-05-25T17:55:13.167Z,73.22
2023-05-25T17:57:41.250Z,77.71
2023-05-25T18:00:09.934Z,76.38
2023-05-25T18:02:40.981Z,76.86
2023-05-25T18:05:09.058Z,82.49
2023-05-25T18:07:36.821Z,79.74
2023-05-25T18:10:05.411Z,81.61
2023-05-25T18:12:33.338Z,81.08
2023-05-25T18:15:01.268Z,88.46
2023-05-25T18:17:29.641Z,94.04
2023-05-25T18:19:57.107Z,99.50
2023-05-25T18:22:25.022Z,100.00
2023-05-25T18:24:52.935Z,100.00
2023-05-25T18:27:21.658Z,100.00
2023-05-25T18:29:49.327Z,100.00
2023-05-25T18:32:16.662Z,100.00
2023-05-25T18:34:45.156Z,100.00
2023-05-25T18:37:12.830Z,100.00
2023-05-25T18:39:40.574Z,100.00
2023-05-25T18:42:08.928Z,100.00
2023-05-25T18:44:36.584Z,100.00
2023-05-25T18:47:04.578Z,100.00
2023-05-25T18:49:34.557Z,100.00
2023-05-25T18:52:02.504Z,100.00
2023-05-25T18:54:30.357Z,100.00
2023-05-25T18:56:57.697Z,100.00
2023-05-25T18:59:25.014Z,100.00
2023-05-25T19:01:52.758Z,100.00
2023-05-25T19:04:21.202Z,100.00
2023-05-25T19:06:49.077Z,100.00
2023-05-25T19:09:16.924Z,100.00
2023-05-25T19:11:44.237Z,100.00
2023-05-25T19:14:12.412Z,100.00
2023-05-25T19:16:39.863Z,100.00
2023-05-25T19:19:07.805Z,100.00
2023-05-25T19:21:36.449Z,100.00
2023-05-25T19:24:04.862Z,100.00
2023-05-25T19:26:32.731Z,100.00
2023-05-25T19:29:01.817Z,100.00
2023-05-25T19:31:29.225Z,100.00
2023-05-25T19:33:57.006Z,100.00
2023-05-25T19:36:24.802Z,100.00
2023-05-25T19:38:52.281Z,100.00
2023-05-25T19:41:20.137Z,100.00
2023-05-25T19:43:48.363Z,100.00
2023-05-25T19:46:16.231Z,100.00
2023-05-25T19:48:44.166Z,100.00
2023-05-25T19:51:12.455Z,100.00
2023-05-25T19:53:41.396Z,100.00
2023-05-25T19:56:09.261Z,100.00
2023-05-25T19:58:37.214Z,100.00
2023-05-25T20:01:05.272Z,100.00
2023-05-25T20:03:32.963Z,100.00
2023-05-25T20:06:01.128Z,100.00
2023-05-25T20:08:29.323Z,100.00
2023-05-25T20:10:57.098Z,100.00
2023-05-25T20:13:25.282Z,100.00
2023-05-25T20:15:53.162Z,100.00
2023-05-25T20:18:20.799Z,100.00
2023-05-25T20:20:48.786Z,100.00
2023-05-25T20:23:16.886Z,100.00
2023-05-25T20:25:44.625Z,100.00
2023-05-25T20:28:12.704Z,100.00
2023-05-25T20:30:40.074Z,100.00
2023-05-25T20:33:08.039Z,100.00
2023-05-25T20:35:37.420Z,100.00
2023-05-25T20:38:05.596Z,100.00
2023-05-25T20:40:32.965Z,100.00
2023-05-25T20:43:00.457Z,100.00
2023-05-25T20:45:28.270Z,100.00
2023-05-25T20:48:03.825Z,100.00
2023-05-25T20:50:31.878Z,100.00
2023-05-25T20:52:59.278Z,100.00
2023-05-25T20:55:26.664Z,100.00
2023-05-25T20:57:54.238Z,100.00
2023-05-25T21:00:24.058Z,100.00
2023-05-25T21:02:51.491Z,100.00
2023-05-25T21:05:19.721Z,100.00
2023-05-25T21:07:48.260Z,100.00
2023-05-25T21:10:16.188Z,100.00
2023-05-25T21:12:44.055Z,100.00
2023-05-25T21:15:11.858Z,100.00
2023-05-25T21:17:39.251Z,100.00
2023-05-25T21:20:07.186Z,100.00
2023-05-25T21:22:34.624Z,100.00
2023-05-25T21:25:02.618Z,100.00
2023-05-25T21:27:30.393Z,100.00
2023-05-25T21:29:57.784Z,100.00
2023-05-25T21:32:25.418Z,100.00
2023-05-25T21:34:53.883Z,100.00
2023-05-25T21:37:22.177Z,100.00
2023-05-25T21:39:49.926Z,100.00
2023-05-25T21:42:17.236Z,100.00
